sensor_id;sensor_type;location;lat;lon;timestamp;P1;durP1;ratioP1;P2;durP2;ratioP2
11970;SDS011;6045;42.682;23.294;2022-10-16T00:00:37;2.03;;;1.90;;
11970;SDS011;6045;42.682;23.294;2022-10-16T00:03:06;4.27;;;2.90;;
11970;SDS011;6045;42.682;23.294;2022-10-16T00:05:33;3.70;;;2.63;;
11970;SDS011;6045;42.682;23.294;2022-10-16T00:08:06;5.20;;;3.30;;
11970;SDS011;6045;42.682;23.294;2022-10-16T00:10:34;3.20;;;2.40;;
11970;SDS011;6045;42.682;23.294;2022-10-16T00:13:01;3.10;;;2.80;;
11970;SDS011;6045;42.682;23.294;2022-10-16T00:15:29;2.60;;;2.23;;
11970;SDS011;6045;42.682;23.294;2022-10-16T00:17:56;3.80;;;2.53;;
11970;SDS011;6045;42.682;23.294;2022-10-16T00:20:22;3.00;;;2.70;;
11970;SDS011;6045;42.682;23.294;2022-10-16T00:22:49;4.03;;;2.57;;
11970;SDS011;6045;42.682;23.294;2022-10-16T00:25:18;3.30;;;2.63;;
11970;SDS011;6045;42.682;23.294;2022-10-16T00:27:44;2.77;;;2.57;;
11970;SDS011;6045;42.682;23.294;2022-10-16T00:30:11;3.00;;;2.23;;
11970;SDS011;6045;42.682;23.294;2022-10-16T00:32:38;3.43;;;2.73;;
11970;SDS011;6045;42.682;23.294;2022-10-16T00:35:05;4.33;;;2.77;;
11970;SDS011;6045;42.682;23.294;2022-10-16T00:37:32;3.77;;;2.63;;
11970;SDS011;6045;42.682;23.294;2022-10-16T00:39:59;4.83;;;2.93;;
11970;SDS011;6045;42.682;23.294;2022-10-16T00:42:27;5.57;;;2.70;;
11970;SDS011;6045;42.682;23.294;2022-10-16T00:44:54;3.70;;;2.47;;
11970;SDS011;6045;42.682;23.294;2022-10-16T00:47:24;2.50;;;2.10;;
11970;SDS011;6045;42.682;23.294;2022-10-16T00:49:55;2.63;;;1.93;;
11970;SDS011;6045;42.682;23.294;2022-10-16T00:52:27;5.10;;;3.00;;
11970;SDS011;6045;42.682;23.294;2022-10-16T00:54:54;2.57;;;2.20;;
11970;SDS011;6045;42.682;23.294;2022-10-16T00:57:22;2.37;;;2.17;;
11970;SDS011;6045;42.682;23.294;2022-10-16T00:59:51;3.53;;;2.50;;
11970;SDS011;6045;42.682;23.294;2022-10-16T01:02:19;4.03;;;2.57;;
11970;SDS011;6045;42.682;23.294;2022-10-16T01:04:47;5.50;;;2.40;;
11970;SDS011;6045;42.682;23.294;2022-10-16T01:07:20;3.60;;;2.57;;
11970;SDS011;6045;42.682;23.294;2022-10-16T01:10:02;4.20;;;2.57;;
11970;SDS011;6045;42.682;23.294;2022-10-16T01:12:41;3.17;;;2.57;;
11970;SDS011;6045;42.682;23.294;2022-10-16T01:15:14;3.57;;;2.20;;
11970;SDS011;6045;42.682;23.294;2022-10-16T01:17:48;4.67;;;2.20;;
11970;SDS011;6045;42.682;23.294;2022-10-16T01:20:21;4.20;;;2.50;;
11970;SDS011;6045;42.682;23.294;2022-10-16T01:23:03;3.20;;;2.63;;
11970;SDS011;6045;42.682;23.294;2022-10-16T01:25:43;3.10;;;2.83;;
11970;SDS011;6045;42.682;23.294;2022-10-16T01:28:24;3.47;;;2.33;;
11970;SDS011;6045;42.682;23.294;2022-10-16T01:30:56;1.80;;;1.63;;
11970;SDS011;6045;42.682;23.294;2022-10-16T01:33:27;3.23;;;2.53;;
11970;SDS011;6045;42.682;23.294;2022-10-16T01:35:59;2.33;;;1.80;;
11970;SDS011;6045;42.682;23.294;2022-10-16T01:38:30;3.17;;;2.07;;
11970;SDS011;6045;42.682;23.294;2022-10-16T01:41:02;3.50;;;2.67;;
11970;SDS011;6045;42.682;23.294;2022-10-16T01:43:36;4.77;;;2.93;;
11970;SDS011;6045;42.682;23.294;2022-10-16T01:46:06;3.17;;;2.67;;
11970;SDS011;6045;42.682;23.294;2022-10-16T01:48:36;3.03;;;2.43;;
11970;SDS011;6045;42.682;23.294;2022-10-16T01:51:06;4.27;;;2.37;;
11970;SDS011;6045;42.682;23.294;2022-10-16T01:53:35;2.63;;;2.00;;
11970;SDS011;6045;42.682;23.294;2022-10-16T01:56:03;3.73;;;3.30;;
11970;SDS011;6045;42.682;23.294;2022-10-16T01:58:37;5.43;;;2.67;;
11970;SDS011;6045;42.682;23.294;2022-10-16T02:01:08;6.87;;;2.97;;
11970;SDS011;6045;42.682;23.294;2022-10-16T02:03:40;5.47;;;2.57;;
11970;SDS011;6045;42.682;23.294;2022-10-16T02:06:11;3.47;;;2.37;;
11970;SDS011;6045;42.682;23.294;2022-10-16T02:08:38;3.03;;;2.50;;
11970;SDS011;6045;42.682;23.294;2022-10-16T02:11:09;3.50;;;2.77;;
11970;SDS011;6045;42.682;23.294;2022-10-16T02:13:38;3.00;;;2.13;;
11970;SDS011;6045;42.682;23.294;2022-10-16T02:16:10;4.13;;;3.03;;
11970;SDS011;6045;42.682;23.294;2022-10-16T02:18:37;3.17;;;2.57;;
11970;SDS011;6045;42.682;23.294;2022-10-16T02:21:05;5.03;;;2.80;;
11970;SDS011;6045;42.682;23.294;2022-10-16T02:23:37;3.27;;;2.50;;
11970;SDS011;6045;42.682;23.294;2022-10-16T02:26:13;3.67;;;2.40;;
11970;SDS011;6045;42.682;23.294;2022-10-16T02:28:45;4.67;;;2.50;;
11970;SDS011;6045;42.682;23.294;2022-10-16T02:31:18;4.00;;;2.37;;
11970;SDS011;6045;42.682;23.294;2022-10-16T02:33:51;3.00;;;2.60;;
11970;SDS011;6045;42.682;23.294;2022-10-16T02:36:21;2.27;;;2.00;;
11970;SDS011;6045;42.682;23.294;2022-10-16T02:38:48;2.83;;;2.07;;
11970;SDS011;6045;42.682;23.294;2022-10-16T02:41:15;3.47;;;2.27;;
11970;SDS011;6045;42.682;23.294;2022-10-16T02:43:42;4.77;;;2.17;;
11970;SDS011;6045;42.682;23.294;2022-10-16T02:46:10;3.40;;;2.30;;
11970;SDS011;6045;42.682;23.294;2022-10-16T02:48:37;3.17;;;2.87;;
11970;SDS011;6045;42.682;23.294;2022-10-16T02:51:04;2.70;;;2.03;;
11970;SDS011;6045;42.682;23.294;2022-10-16T02:53:31;2.73;;;2.40;;
11970;SDS011;6045;42.682;23.294;2022-10-16T02:55:58;2.17;;;1.63;;
11970;SDS011;6045;42.682;23.294;2022-10-16T02:58:25;3.20;;;2.07;;
11970;SDS011;6045;42.682;23.294;2022-10-16T03:00:52;2.40;;;2.20;;
11970;SDS011;6045;42.682;23.294;2022-10-16T03:03:20;3.60;;;2.77;;
11970;SDS011;6045;42.682;23.294;2022-10-16T03:05:47;4.30;;;2.00;;
11970;SDS011;6045;42.682;23.294;2022-10-16T03:08:13;3.20;;;1.93;;
11970;SDS011;6045;42.682;23.294;2022-10-16T03:10:40;3.80;;;2.03;;
11970;SDS011;6045;42.682;23.294;2022-10-16T03:13:07;3.07;;;2.60;;
11970;SDS011;6045;42.682;23.294;2022-10-16T03:15:34;3.97;;;2.87;;
11970;SDS011;6045;42.682;23.294;2022-10-16T03:18:01;3.27;;;2.80;;
11970;SDS011;6045;42.682;23.294;2022-10-16T03:20:29;3.70;;;3.03;;
11970;SDS011;6045;42.682;23.294;2022-10-16T03:22:56;2.93;;;2.57;;
11970;SDS011;6045;42.682;23.294;2022-10-16T03:25:23;2.87;;;2.63;;
11970;SDS011;6045;42.682;23.294;2022-10-16T03:27:49;4.23;;;3.67;;
11970;SDS011;6045;42.682;23.294;2022-10-16T03:30:16;3.70;;;3.20;;
11970;SDS011;6045;42.682;23.294;2022-10-16T03:32:44;3.60;;;3.30;;
11970;SDS011;6045;42.682;23.294;2022-10-16T03:35:11;4.23;;;2.97;;
11970;SDS011;6045;42.682;23.294;2022-10-16T03:37:39;8.33;;;3.23;;
11970;SDS011;6045;42.682;23.294;2022-10-16T03:40:06;3.67;;;3.37;;
11970;SDS011;6045;42.682;23.294;2022-10-16T03:42:34;3.40;;;2.90;;
11970;SDS011;6045;42.682;23.294;2022-10-16T03:45:00;3.20;;;2.87;;
11970;SDS011;6045;42.682;23.294;2022-10-16T03:47:27;4.87;;;3.20;;
11970;SDS011;6045;42.682;23.294;2022-10-16T03:49:54;9.77;;;4.30;;
11970;SDS011;6045;42.682;23.294;2022-10-16T03:52:21;6.77;;;3.53;;
11970;SDS011;6045;42.682;23.294;2022-10-16T03:54:49;3.83;;;2.50;;
11970;SDS011;6045;42.682;23.294;2022-10-16T03:57:16;3.47;;;2.80;;
11970;SDS011;6045;42.682;23.294;2022-10-16T03:59:43;3.77;;;2.97;;
11970;SDS011;6045;42.682;23.294;2022-10-16T04:02:09;3.03;;;2.73;;
11970;SDS011;6045;42.682;23.294;2022-10-16T04:04:36;3.30;;;2.90;;
11970;SDS011;6045;42.682;23.294;2022-10-16T04:07:03;6.87;;;3.10;;
11970;SDS011;6045;42.682;23.294;2022-10-16T04:09:33;3.87;;;2.90;;
11970;SDS011;6045;42.682;23.294;2022-10-16T04:12:01;4.00;;;2.97;;
11970;SDS011;6045;42.682;23.294;2022-10-16T04:14:28;3.23;;;2.33;;
11970;SDS011;6045;42.682;23.294;2022-10-16T04:16:54;5.43;;;3.13;;
11970;SDS011;6045;42.682;23.294;2022-10-16T04:19:21;3.60;;;2.60;;
11970;SDS011;6045;42.682;23.294;2022-10-16T04:21:48;2.73;;;2.47;;
11970;SDS011;6045;42.682;23.294;2022-10-16T04:24:15;4.03;;;3.17;;
11970;SDS011;6045;42.682;23.294;2022-10-16T04:26:42;4.53;;;3.10;;
11970;SDS011;6045;42.682;23.294;2022-10-16T04:29:10;3.57;;;2.83;;
11970;SDS011;6045;42.682;23.294;2022-10-16T04:31:37;3.40;;;2.87;;
11970;SDS011;6045;42.682;23.294;2022-10-16T04:34:03;5.13;;;3.27;;
11970;SDS011;6045;42.682;23.294;2022-10-16T04:36:30;4.83;;;3.10;;
11970;SDS011;6045;42.682;23.294;2022-10-16T04:38:57;2.90;;;2.43;;
11970;SDS011;6045;42.682;23.294;2022-10-16T04:41:24;3.93;;;2.63;;
11970;SDS011;6045;42.682;23.294;2022-10-16T04:43:51;3.83;;;2.63;;
11970;SDS011;6045;42.682;23.294;2022-10-16T04:46:19;3.30;;;2.40;;
11970;SDS011;6045;42.682;23.294;2022-10-16T04:48:46;3.83;;;3.40;;
11970;SDS011;6045;42.682;23.294;2022-10-16T04:51:18;2.50;;;2.07;;
11970;SDS011;6045;42.682;23.294;2022-10-16T04:53:45;2.67;;;2.40;;
11970;SDS011;6045;42.682;23.294;2022-10-16T04:56:11;3.27;;;2.40;;
11970;SDS011;6045;42.682;23.294;2022-10-16T04:58:40;5.33;;;2.87;;
11970;SDS011;6045;42.682;23.294;2022-10-16T05:01:07;2.67;;;2.43;;
11970;SDS011;6045;42.682;23.294;2022-10-16T05:03:37;2.23;;;2.00;;
11970;SDS011;6045;42.682;23.294;2022-10-16T05:06:04;4.50;;;3.27;;
11970;SDS011;6045;42.682;23.294;2022-10-16T05:08:32;3.40;;;2.63;;
11970;SDS011;6045;42.682;23.294;2022-10-16T05:10:58;3.40;;;2.93;;
11970;SDS011;6045;42.682;23.294;2022-10-16T05:13:28;4.37;;;2.90;;
11970;SDS011;6045;42.682;23.294;2022-10-16T05:15:54;2.77;;;2.30;;
11970;SDS011;6045;42.682;23.294;2022-10-16T05:18:22;3.13;;;2.83;;
11970;SDS011;6045;42.682;23.294;2022-10-16T05:20:50;2.77;;;2.50;;
11970;SDS011;6045;42.682;23.294;2022-10-16T05:23:17;3.03;;;2.73;;
11970;SDS011;6045;42.682;23.294;2022-10-16T05:25:51;3.50;;;2.93;;
11970;SDS011;6045;42.682;23.294;2022-10-16T05:28:19;4.07;;;2.73;;
11970;SDS011;6045;42.682;23.294;2022-10-16T05:30:46;3.47;;;3.03;;
11970;SDS011;6045;42.682;23.294;2022-10-16T05:33:14;3.43;;;2.67;;
11970;SDS011;6045;42.682;23.294;2022-10-16T05:35:41;3.63;;;3.20;;
11970;SDS011;6045;42.682;23.294;2022-10-16T05:38:10;4.47;;;3.10;;
11970;SDS011;6045;42.682;23.294;2022-10-16T05:40:37;3.43;;;2.97;;
11970;SDS011;6045;42.682;23.294;2022-10-16T05:43:04;5.90;;;3.03;;
11970;SDS011;6045;42.682;23.294;2022-10-16T05:45:31;5.63;;;3.27;;
11970;SDS011;6045;42.682;23.294;2022-10-16T05:47:58;4.20;;;3.13;;
11970;SDS011;6045;42.682;23.294;2022-10-16T05:50:25;4.00;;;3.10;;
11970;SDS011;6045;42.682;23.294;2022-10-16T05:52:52;4.50;;;2.97;;
11970;SDS011;6045;42.682;23.294;2022-10-16T05:55:20;4.27;;;3.77;;
11970;SDS011;6045;42.682;23.294;2022-10-16T05:57:47;4.30;;;3.60;;
11970;SDS011;6045;42.682;23.294;2022-10-16T06:00:14;3.97;;;3.60;;
11970;SDS011;6045;42.682;23.294;2022-10-16T06:02:41;4.43;;;3.50;;
11970;SDS011;6045;42.682;23.294;2022-10-16T06:05:08;4.65;;;3.10;;
11970;SDS011;6045;42.682;23.294;2022-10-16T06:07:35;4.75;;;3.97;;
11970;SDS011;6045;42.682;23.294;2022-10-16T06:10:02;3.72;;;2.83;;
11970;SDS011;6045;42.682;23.294;2022-10-16T06:12:32;3.53;;;3.22;;
11970;SDS011;6045;42.682;23.294;2022-10-16T06:14:58;4.88;;;2.80;;
11970;SDS011;6045;42.682;23.294;2022-10-16T06:17:25;3.50;;;3.15;;
11970;SDS011;6045;42.682;23.294;2022-10-16T06:19:52;4.68;;;3.22;;
11970;SDS011;6045;42.682;23.294;2022-10-16T06:22:19;5.55;;;3.67;;
11970;SDS011;6045;42.682;23.294;2022-10-16T06:24:46;4.03;;;3.15;;
11970;SDS011;6045;42.682;23.294;2022-10-16T06:27:12;3.33;;;3.00;;
11970;SDS011;6045;42.682;23.294;2022-10-16T06:29:41;3.30;;;3.00;;
11970;SDS011;6045;42.682;23.294;2022-10-16T06:32:08;4.88;;;3.35;;
11970;SDS011;6045;42.682;23.294;2022-10-16T06:34:35;5.55;;;3.72;;
11970;SDS011;6045;42.682;23.294;2022-10-16T06:37:02;4.43;;;3.80;;
11970;SDS011;6045;42.682;23.294;2022-10-16T06:39:29;3.92;;;3.10;;
11970;SDS011;6045;42.682;23.294;2022-10-16T06:41:56;4.15;;;3.50;;
11970;SDS011;6045;42.682;23.294;2022-10-16T06:44:22;5.57;;;3.90;;
11970;SDS011;6045;42.682;23.294;2022-10-16T06:46:51;4.60;;;3.50;;
11970;SDS011;6045;42.682;23.294;2022-10-16T06:49:18;6.90;;;3.25;;
11970;SDS011;6045;42.682;23.294;2022-10-16T06:51:47;6.40;;;4.13;;
11970;SDS011;6045;42.682;23.294;2022-10-16T06:54:14;5.57;;;4.57;;
11970;SDS011;6045;42.682;23.294;2022-10-16T06:56:41;6.22;;;4.88;;
11970;SDS011;6045;42.682;23.294;2022-10-16T06:59:08;4.90;;;4.07;;
11970;SDS011;6045;42.682;23.294;2022-10-16T07:01:35;5.20;;;3.88;;
11970;SDS011;6045;42.682;23.294;2022-10-16T07:04:03;4.93;;;3.72;;
11970;SDS011;6045;42.682;23.294;2022-10-16T07:06:30;5.07;;;4.05;;
11970;SDS011;6045;42.682;23.294;2022-10-16T07:09:00;3.92;;;3.10;;
11970;SDS011;6045;42.682;23.294;2022-10-16T07:11:28;3.80;;;3.05;;
11970;SDS011;6045;42.682;23.294;2022-10-16T07:13:55;4.30;;;3.22;;
11970;SDS011;6045;42.682;23.294;2022-10-16T07:16:22;3.67;;;3.33;;
11970;SDS011;6045;42.682;23.294;2022-10-16T07:18:51;4.05;;;3.58;;
11970;SDS011;6045;42.682;23.294;2022-10-16T07:21:25;5.38;;;3.88;;
11970;SDS011;6045;42.682;23.294;2022-10-16T07:23:54;6.93;;;4.43;;
11970;SDS011;6045;42.682;23.294;2022-10-16T07:26:22;5.28;;;3.45;;
11970;SDS011;6045;42.682;23.294;2022-10-16T07:28:50;3.92;;;3.50;;
11970;SDS011;6045;42.682;23.294;2022-10-16T07:31:17;4.75;;;4.03;;
11970;SDS011;6045;42.682;23.294;2022-10-16T07:33:46;4.90;;;3.90;;
11970;SDS011;6045;42.682;23.294;2022-10-16T07:36:13;4.18;;;3.58;;
11970;SDS011;6045;42.682;23.294;2022-10-16T07:38:42;6.82;;;3.58;;
11970;SDS011;6045;42.682;23.294;2022-10-16T07:41:11;5.18;;;4.25;;
11970;SDS011;6045;42.682;23.294;2022-10-16T07:43:39;5.45;;;4.28;;
11970;SDS011;6045;42.682;23.294;2022-10-16T07:46:07;4.72;;;3.70;;
11970;SDS011;6045;42.682;23.294;2022-10-16T07:48:34;6.93;;;4.78;;
11970;SDS011;6045;42.682;23.294;2022-10-16T07:51:01;5.88;;;4.93;;
11970;SDS011;6045;42.682;23.294;2022-10-16T07:53:29;5.95;;;4.35;;
11970;SDS011;6045;42.682;23.294;2022-10-16T07:56:01;7.07;;;5.13;;
11970;SDS011;6045;42.682;23.294;2022-10-16T07:58:29;6.57;;;5.10;;
11970;SDS011;6045;42.682;23.294;2022-10-16T08:00:56;7.38;;;5.15;;
11970;SDS011;6045;42.682;23.294;2022-10-16T08:03:24;8.45;;;5.63;;
11970;SDS011;6045;42.682;23.294;2022-10-16T08:05:51;5.82;;;4.32;;
11970;SDS011;6045;42.682;23.294;2022-10-16T08:08:18;4.63;;;4.10;;
11970;SDS011;6045;42.682;23.294;2022-10-16T08:10:45;7.63;;;5.63;;
11970;SDS011;6045;42.682;23.294;2022-10-16T08:13:13;5.97;;;4.07;;
11970;SDS011;6045;42.682;23.294;2022-10-16T08:15:40;5.28;;;3.58;;
11970;SDS011;6045;42.682;23.294;2022-10-16T08:18:07;6.75;;;4.25;;
11970;SDS011;6045;42.682;23.294;2022-10-16T08:20:35;4.78;;;3.50;;
11970;SDS011;6045;42.682;23.294;2022-10-16T08:23:02;3.35;;;2.95;;
11970;SDS011;6045;42.682;23.294;2022-10-16T08:25:29;3.45;;;2.92;;
11970;SDS011;6045;42.682;23.294;2022-10-16T08:27:56;4.30;;;2.70;;
11970;SDS011;6045;42.682;23.294;2022-10-16T08:30:24;2.85;;;2.55;;
11970;SDS011;6045;42.682;23.294;2022-10-16T08:32:51;3.00;;;2.40;;
11970;SDS011;6045;42.682;23.294;2022-10-16T08:35:18;3.28;;;2.95;;
11970;SDS011;6045;42.682;23.294;2022-10-16T08:37:45;3.47;;;3.15;;
11970;SDS011;6045;42.682;23.294;2022-10-16T08:40:16;4.00;;;2.75;;
11970;SDS011;6045;42.682;23.294;2022-10-16T08:42:53;2.60;;;2.40;;
11970;SDS011;6045;42.682;23.294;2022-10-16T08:45:38;2.88;;;2.58;;
11970;SDS011;6045;42.682;23.294;2022-10-16T08:48:18;3.33;;;2.63;;
11970;SDS011;6045;42.682;23.294;2022-10-16T08:50:49;3.53;;;2.60;;
11970;SDS011;6045;42.682;23.294;2022-10-16T08:53:18;2.65;;;2.08;;
11970;SDS011;6045;42.682;23.294;2022-10-16T08:55:51;2.47;;;2.05;;
11970;SDS011;6045;42.682;23.294;2022-10-16T08:58:19;2.22;;;2.00;;
11970;SDS011;6045;42.682;23.294;2022-10-16T09:00:49;2.22;;;2.03;;
11970;SDS011;6045;42.682;23.294;2022-10-16T09:03:31;2.90;;;2.00;;
11970;SDS011;6045;42.682;23.294;2022-10-16T09:06:09;2.20;;;1.98;;
11970;SDS011;6045;42.682;23.294;2022-10-16T09:08:49;2.33;;;1.95;;
11970;SDS011;6045;42.682;23.294;2022-10-16T09:11:26;1.83;;;1.70;;
11970;SDS011;6045;42.682;23.294;2022-10-16T09:14:06;1.83;;;1.52;;
11970;SDS011;6045;42.682;23.294;2022-10-16T09:16:48;1.95;;;1.70;;
11970;SDS011;6045;42.682;23.294;2022-10-16T09:19:24;2.15;;;1.77;;
11970;SDS011;6045;42.682;23.294;2022-10-16T09:21:56;1.90;;;1.70;;
11970;SDS011;6045;42.682;23.294;2022-10-16T09:24:26;1.83;;;1.40;;
11970;SDS011;6045;42.682;23.294;2022-10-16T09:26:52;1.77;;;1.60;;
11970;SDS011;6045;42.682;23.294;2022-10-16T09:29:20;1.92;;;1.73;;
11970;SDS011;6045;42.682;23.294;2022-10-16T09:31:51;3.15;;;1.98;;
11970;SDS011;6045;42.682;23.294;2022-10-16T09:34:21;1.77;;;1.45;;
11970;SDS011;6045;42.682;23.294;2022-10-16T09:36:54;1.75;;;1.42;;
11970;SDS011;6045;42.682;23.294;2022-10-16T09:39:23;1.30;;;1.20;;
11970;SDS011;6045;42.682;23.294;2022-10-16T09:41:50;1.98;;;1.52;;
11970;SDS011;6045;42.682;23.294;2022-10-16T09:44:19;1.52;;;1.40;;
11970;SDS011;6045;42.682;23.294;2022-10-16T09:47:00;3.13;;;1.80;;
11970;SDS011;6045;42.682;23.294;2022-10-16T09:49:27;2.58;;;1.58;;
11970;SDS011;6045;42.682;23.294;2022-10-16T09:52:02;3.05;;;1.33;;
11970;SDS011;6045;42.682;23.294;2022-10-16T09:54:30;1.33;;;1.20;;
11970;SDS011;6045;42.682;23.294;2022-10-16T09:57:03;3.97;;;1.90;;
11970;SDS011;6045;42.682;23.294;2022-10-16T09:59:31;2.08;;;1.55;;
11970;SDS011;6045;42.682;23.294;2022-10-16T10:02:03;1.80;;;1.50;;
11970;SDS011;6045;42.682;23.294;2022-10-16T10:04:39;1.45;;;1.35;;
11970;SDS011;6045;42.682;23.294;2022-10-16T10:07:15;1.77;;;1.50;;
11970;SDS011;6045;42.682;23.294;2022-10-16T10:09:45;2.40;;;1.75;;
11970;SDS011;6045;42.682;23.294;2022-10-16T10:12:16;1.80;;;1.60;;
11970;SDS011;6045;42.682;23.294;2022-10-16T10:14:46;1.95;;;1.35;;
11970;SDS011;6045;42.682;23.294;2022-10-16T10:17:16;2.22;;;1.48;;
11970;SDS011;6045;42.682;23.294;2022-10-16T10:19:52;2.40;;;1.67;;
11970;SDS011;6045;42.682;23.294;2022-10-16T10:22:24;1.90;;;1.70;;
11970;SDS011;6045;42.682;23.294;2022-10-16T10:25:12;2.47;;;1.90;;
11970;SDS011;6045;42.682;23.294;2022-10-16T10:27:48;1.70;;;1.60;;
11970;SDS011;6045;42.682;23.294;2022-10-16T10:30:24;1.67;;;1.48;;
11970;SDS011;6045;42.682;23.294;2022-10-16T10:33:02;1.65;;;1.25;;
11970;SDS011;6045;42.682;23.294;2022-10-16T10:35:42;2.55;;;1.55;;
11970;SDS011;6045;42.682;23.294;2022-10-16T10:38:22;2.00;;;1.50;;
11970;SDS011;6045;42.682;23.294;2022-10-16T10:41:01;1.50;;;1.40;;
11970;SDS011;6045;42.682;23.294;2022-10-16T10:43:42;1.77;;;1.40;;
11970;SDS011;6045;42.682;23.294;2022-10-16T10:46:21;1.70;;;1.58;;
11970;SDS011;6045;42.682;23.294;2022-10-16T10:49:04;1.48;;;1.27;;
11970;SDS011;6045;42.682;23.294;2022-10-16T10:51:44;3.78;;;1.48;;
11970;SDS011;6045;42.682;23.294;2022-10-16T10:54:22;3.22;;;1.70;;
11970;SDS011;6045;42.682;23.294;2022-10-16T10:56:57;1.42;;;1.17;;
11970;SDS011;6045;42.682;23.294;2022-10-16T10:59:43;2.10;;;1.55;;
11970;SDS011;6045;42.682;23.294;2022-10-16T11:02:23;2.20;;;1.85;;
11970;SDS011;6045;42.682;23.294;2022-10-16T11:05:01;1.90;;;1.80;;
11970;SDS011;6045;42.682;23.294;2022-10-16T11:07:49;1.70;;;1.60;;
11970;SDS011;6045;42.682;23.294;2022-10-16T11:10:21;2.42;;;1.70;;
11970;SDS011;6045;42.682;23.294;2022-10-16T11:12:55;2.10;;;1.90;;
11970;SDS011;6045;42.682;23.294;2022-10-16T11:15:30;2.88;;;1.45;;
11970;SDS011;6045;42.682;23.294;2022-10-16T11:18:00;1.48;;;1.23;;
11970;SDS011;6045;42.682;23.294;2022-10-16T11:20:34;1.75;;;1.27;;
11970;SDS011;6045;42.682;23.294;2022-10-16T11:23:07;1.45;;;1.35;;
11970;SDS011;6045;42.682;23.294;2022-10-16T11:25:42;1.95;;;1.58;;
11970;SDS011;6045;42.682;23.294;2022-10-16T11:28:12;1.60;;;1.15;;
11970;SDS011;6045;42.682;23.294;2022-10-16T11:30:43;3.13;;;1.80;;
11970;SDS011;6045;42.682;23.294;2022-10-16T11:33:23;1.60;;;1.50;;
11970;SDS011;6045;42.682;23.294;2022-10-16T11:35:59;1.45;;;1.35;;
11970;SDS011;6045;42.682;23.294;2022-10-16T11:38:30;2.50;;;1.40;;
11970;SDS011;6045;42.682;23.294;2022-10-16T11:41:02;1.90;;;1.70;;
11970;SDS011;6045;42.682;23.294;2022-10-16T11:43:45;1.83;;;1.65;;
11970;SDS011;6045;42.682;23.294;2022-10-16T11:46:19;1.73;;;1.40;;
11970;SDS011;6045;42.682;23.294;2022-10-16T11:48:51;2.92;;;2.10;;
11970;SDS011;6045;42.682;23.294;2022-10-16T11:51:29;2.15;;;1.75;;
11970;SDS011;6045;42.682;23.294;2022-10-16T11:54:04;1.80;;;1.70;;
11970;SDS011;6045;42.682;23.294;2022-10-16T11:56:43;1.95;;;1.55;;
11970;SDS011;6045;42.682;23.294;2022-10-16T11:59:14;1.50;;;1.27;;
11970;SDS011;6045;42.682;23.294;2022-10-16T12:01:49;1.40;;;1.25;;
11970;SDS011;6045;42.682;23.294;2022-10-16T12:04:22;2.78;;;1.50;;
11970;SDS011;6045;42.682;23.294;2022-10-16T12:06:56;1.77;;;1.40;;
11970;SDS011;6045;42.682;23.294;2022-10-16T12:09:29;1.67;;;1.55;;
11970;SDS011;6045;42.682;23.294;2022-10-16T12:11:57;2.25;;;1.63;;
11970;SDS011;6045;42.682;23.294;2022-10-16T12:14:35;2.97;;;1.60;;
11970;SDS011;6045;42.682;23.294;2022-10-16T12:19:58;1.50;;;1.40;;
11970;SDS011;6045;42.682;23.294;2022-10-16T12:22:28;1.52;;;1.33;;
11970;SDS011;6045;42.682;23.294;2022-10-16T12:24:57;2.58;;;1.70;;
11970;SDS011;6045;42.682;23.294;2022-10-16T12:27:27;1.80;;;1.67;;
11970;SDS011;6045;42.682;23.294;2022-10-16T12:29:55;2.60;;;1.75;;
11970;SDS011;6045;42.682;23.294;2022-10-16T12:32:25;1.90;;;1.70;;
11970;SDS011;6045;42.682;23.294;2022-10-16T12:34:56;2.67;;;2.47;;
11970;SDS011;6045;42.682;23.294;2022-10-16T12:37:25;2.58;;;1.42;;
11970;SDS011;6045;42.682;23.294;2022-10-16T12:39:57;3.17;;;1.55;;
11970;SDS011;6045;42.682;23.294;2022-10-16T12:42:32;1.98;;;1.30;;
11970;SDS011;6045;42.682;23.294;2022-10-16T12:45:00;2.17;;;1.50;;
11970;SDS011;6045;42.682;23.294;2022-10-16T12:47:38;1.38;;;1.27;;
11970;SDS011;6045;42.682;23.294;2022-10-16T12:50:28;2.22;;;1.50;;
11970;SDS011;6045;42.682;23.294;2022-10-16T12:52:58;1.42;;;1.33;;
11970;SDS011;6045;42.682;23.294;2022-10-16T12:55:30;3.53;;;2.05;;
11970;SDS011;6045;42.682;23.294;2022-10-16T13:01:17;1.50;;;1.40;;
11970;SDS011;6045;42.682;23.294;2022-10-16T13:07:00;1.70;;;1.55;;
11970;SDS011;6045;42.682;23.294;2022-10-16T13:09:44;2.83;;;1.63;;
11970;SDS011;6045;42.682;23.294;2022-10-16T13:12:31;1.92;;;1.60;;
11970;SDS011;6045;42.682;23.294;2022-10-16T13:15:22;2.05;;;1.88;;
11970;SDS011;6045;42.682;23.294;2022-10-16T13:17:59;2.05;;;1.55;;
11970;SDS011;6045;42.682;23.294;2022-10-16T13:20:35;3.03;;;1.90;;
11970;SDS011;6045;42.682;23.294;2022-10-16T13:23:11;2.38;;;1.73;;
11970;SDS011;6045;42.682;23.294;2022-10-16T13:25:49;1.40;;;1.30;;
11970;SDS011;6045;42.682;23.294;2022-10-16T13:28:30;1.33;;;1.23;;
11970;SDS011;6045;42.682;23.294;2022-10-16T13:31:00;1.40;;;1.30;;
11970;SDS011;6045;42.682;23.294;2022-10-16T13:33:30;1.58;;;1.48;;
11970;SDS011;6045;42.682;23.294;2022-10-16T13:35:59;2.00;;;1.05;;
11970;SDS011;6045;42.682;23.294;2022-10-16T13:38:27;1.67;;;1.45;;
11970;SDS011;6045;42.682;23.294;2022-10-16T13:40:57;2.40;;;1.25;;
11970;SDS011;6045;42.682;23.294;2022-10-16T13:43:27;1.58;;;1.45;;
11970;SDS011;6045;42.682;23.294;2022-10-16T13:45:59;2.33;;;1.48;;
11970;SDS011;6045;42.682;23.294;2022-10-16T13:48:31;1.88;;;1.60;;
11970;SDS011;6045;42.682;23.294;2022-10-16T13:51:00;1.92;;;1.70;;
11970;SDS011;6045;42.682;23.294;2022-10-16T13:53:29;2.22;;;1.80;;
11970;SDS011;6045;42.682;23.294;2022-10-16T13:55:58;2.28;;;1.48;;
11970;SDS011;6045;42.682;23.294;2022-10-16T13:58:26;1.42;;;1.30;;
11970;SDS011;6045;42.682;23.294;2022-10-16T14:00:56;1.50;;;1.40;;
11970;SDS011;6045;42.682;23.294;2022-10-16T14:03:24;4.20;;;1.38;;
11970;SDS011;6045;42.682;23.294;2022-10-16T14:05:52;2.22;;;1.15;;
11970;SDS011;6045;42.682;23.294;2022-10-16T14:08:21;2.15;;;1.50;;
11970;SDS011;6045;42.682;23.294;2022-10-16T14:10:50;1.38;;;1.27;;
11970;SDS011;6045;42.682;23.294;2022-10-16T14:13:20;1.45;;;1.35;;
11970;SDS011;6045;42.682;23.294;2022-10-16T14:15:56;1.45;;;1.35;;
11970;SDS011;6045;42.682;23.294;2022-10-16T14:18:25;1.40;;;1.08;;
11970;SDS011;6045;42.682;23.294;2022-10-16T14:20:53;1.50;;;1.40;;
11970;SDS011;6045;42.682;23.294;2022-10-16T14:23:22;1.42;;;1.23;;
11970;SDS011;6045;42.682;23.294;2022-10-16T14:25:54;1.30;;;1.20;;
11970;SDS011;6045;42.682;23.294;2022-10-16T14:28:32;1.60;;;1.33;;
11970;SDS011;6045;42.682;23.294;2022-10-16T14:31:00;2.45;;;1.45;;
11970;SDS011;6045;42.682;23.294;2022-10-16T14:33:31;1.73;;;0.93;;
11970;SDS011;6045;42.682;23.294;2022-10-16T14:36:02;2.03;;;1.42;;
11970;SDS011;6045;42.682;23.294;2022-10-16T14:38:32;2.08;;;1.42;;
11970;SDS011;6045;42.682;23.294;2022-10-16T14:40:59;2.78;;;1.58;;
11970;SDS011;6045;42.682;23.294;2022-10-16T14:43:29;1.05;;;1.00;;
11970;SDS011;6045;42.682;23.294;2022-10-16T14:46:03;1.67;;;1.02;;
11970;SDS011;6045;42.682;23.294;2022-10-16T14:48:35;2.63;;;1.83;;
11970;SDS011;6045;42.682;23.294;2022-10-16T14:51:08;1.38;;;1.25;;
11970;SDS011;6045;42.682;23.294;2022-10-16T14:53:39;1.38;;;1.00;;
11970;SDS011;6045;42.682;23.294;2022-10-16T14:56:06;1.52;;;1.00;;
11970;SDS011;6045;42.682;23.294;2022-10-16T14:58:34;1.30;;;1.20;;
11970;SDS011;6045;42.682;23.294;2022-10-16T15:01:01;2.88;;;1.50;;
11970;SDS011;6045;42.682;23.294;2022-10-16T15:03:32;2.42;;;1.30;;
11970;SDS011;6045;42.682;23.294;2022-10-16T15:05:59;1.40;;;1.30;;
11970;SDS011;6045;42.682;23.294;2022-10-16T15:08:26;1.33;;;1.23;;
11970;SDS011;6045;42.682;23.294;2022-10-16T15:10:54;1.23;;;1.08;;
11970;SDS011;6045;42.682;23.294;2022-10-16T15:13:21;1.95;;;1.20;;
11970;SDS011;6045;42.682;23.294;2022-10-16T15:15:49;1.98;;;1.30;;